オスロ の空港の天気 - METARとTAF

オスロ空港 ( ENGM / OSL ) - ノルウェー アーケシュフース県オスロ
飛行場実況気象(Metar)
観測時間10/20 04:20 CEST (10/20 02:20 UTC)
風向・風速北東 3m/s
視程10km以上
天気現象周辺でしゅう雨
全天の4割程度の雲 雲底高度 460m
全天の8割程度の雲 雲底高度 1280m
気温3℃
湿度93%
気圧1019hPa
METARENGM 200220Z 04005KT 9999 VCSH SCT015 BKN042 03/02 Q1019
過去の天気等 Google飛行場航空写真 Wunderground天気予報

過去48時間のMETAR

飛行場予報(TAF)
発表時間: -
20日11時 CEST ~ 20日14時 CEST に徐々に
全天の8割程度の雲 雲底高度 430m
20日14時 CEST ~ 21日2時 CEST に一時的に
視程4,000m
天気現象弱い雨霧雨 もや
全天を覆う雲 雲底高度 240m
TAF ENGM 2000/2024 05007KT 9999 FEW030 BKN080
BECMG 2009/2012 BKN014
TEMPO 2012/2024 4000 -RADZ BR OVC008